createdAt,value
2023-05-10T00:00:34.601Z,10.1
2023-05-10T00:01:50.905Z,10.1
2023-05-10T00:03:07.193Z,10.1
2023-05-10T00:04:23.488Z,10.1
2023-05-10T00:05:39.791Z,10.1
2023-05-10T00:06:56.079Z,10.1
2023-05-10T00:08:12.374Z,10.1
2023-05-10T00:09:27.688Z,10.1
2023-05-10T00:10:43.980Z,10.2
2023-05-10T00:12:00.255Z,10.2
2023-05-10T00:13:16.555Z,10.2
2023-05-10T00:14:32.866Z,10.2
2023-05-10T00:15:49.158Z,10.2
2023-05-10T00:17:05.463Z,10.3
2023-05-10T00:18:21.753Z,10.3
2023-05-10T00:19:38.041Z,10.3
2023-05-10T00:20:54.343Z,10.3
2023-05-10T00:22:10.638Z,10.3
2023-05-10T00:23:26.920Z,10.3
2023-05-10T00:24:43.213Z,10.3
2023-05-10T00:25:58.537Z,10.3
2023-05-10T00:27:14.817Z,10.3
2023-05-10T00:28:31.104Z,10.3
2023-05-10T00:29:47.412Z,10.3
2023-05-10T00:31:03.714Z,10.3
2023-05-10T00:32:20.003Z,10.3
2023-05-10T00:33:36.295Z,10.3
2023-05-10T00:34:52.589Z,10.3
2023-05-10T00:36:08.866Z,10.3
2023-05-10T00:37:25.161Z,10.3
2023-05-10T00:38:41.480Z,10.3
2023-05-10T00:39:57.766Z,10.2
2023-05-10T00:41:14.067Z,10.3
2023-05-10T00:42:29.370Z,10.2
2023-05-10T00:43:45.648Z,10.3
2023-05-10T00:45:01.962Z,10.2
2023-05-10T00:46:18.267Z,10.3
2023-05-10T00:47:34.552Z,10.3
2023-05-10T00:48:50.857Z,10.3
2023-05-10T00:50:07.123Z,10.3
2023-05-10T00:51:23.429Z,10.3
2023-05-10T00:52:39.726Z,10.3
2023-05-10T00:53:56.030Z,10.3
2023-05-10T00:55:12.313Z,10.3
2023-05-10T00:56:28.596Z,10.3
2023-05-10T00:57:44.905Z,10.3
2023-05-10T00:59:00.220Z,10.3
2023-05-10T01:00:16.523Z,10.4
2023-05-10T01:01:32.799Z,10.4
2023-05-10T01:02:49.089Z,10.4
2023-05-10T01:04:05.377Z,10.4
2023-05-10T01:05:21.688Z,10.4
2023-05-10T01:06:37.982Z,10.4
2023-05-10T01:07:54.287Z,10.4
2023-05-10T01:09:10.572Z,10.4
2023-05-10T01:10:26.863Z,10.4
2023-05-10T01:11:43.155Z,10.3
2023-05-10T01:12:59.459Z,10.4
2023-05-10T01:14:15.764Z,10.4
2023-05-10T01:15:31.042Z,10.4
2023-05-10T01:16:47.357Z,10.4
2023-05-10T01:18:03.647Z,10.4
2023-05-10T01:19:19.954Z,10.4
2023-05-10T01:20:36.236Z,10.4
2023-05-10T01:21:52.522Z,10.4
2023-05-10T01:23:08.830Z,10.4
2023-05-10T01:24:25.136Z,10.4
2023-05-10T01:25:41.413Z,10.4
2023-05-10T01:26:57.719Z,10.4
2023-05-10T01:28:14.003Z,10.4
2023-05-10T01:29:30.297Z,10.4
2023-05-10T01:30:46.589Z,10.4
2023-05-10T01:32:01.899Z,10.3
2023-05-10T01:33:18.197Z,10.3
2023-05-10T01:34:34.492Z,10.3
2023-05-10T01:35:50.803Z,10.3
2023-05-10T01:37:07.081Z,10.3
2023-05-10T01:38:23.376Z,10.3
2023-05-10T01:39:39.672Z,10.3
2023-05-10T01:40:55.974Z,10.3
2023-05-10T01:42:12.265Z,10.3
2023-05-10T01:43:28.000Z,10.3
2023-05-10T01:44:44.833Z,10.3
2023-05-10T01:46:01.154Z,10.3
2023-05-10T01:47:17.419Z,10.3
2023-05-10T01:48:32.758Z,10.3
2023-05-10T01:49:49.049Z,10.3
2023-05-10T01:51:05.332Z,10.3
2023-05-10T01:52:21.622Z,10.3
2023-05-10T01:53:37.914Z,10.3
2023-05-10T01:54:54.225Z,10.3
2023-05-10T01:56:10.527Z,10.3
2023-05-10T01:57:26.804Z,10.2
2023-05-10T01:58:43.106Z,10.2
2023-05-10T01:59:59.399Z,10.3
2023-05-10T02:01:15.704Z,10.3
2023-05-10T02:02:31.995Z,10.2
2023-05-10T02:03:48.276Z,10.2
2023-05-10T02:05:03.589Z,10.2
2023-05-10T02:06:19.901Z,10.2
2023-05-10T02:07:36.175Z,10.2
2023-05-10T02:08:52.458Z,10.2
2023-05-10T02:10:08.752Z,10.1
2023-05-10T02:11:25.047Z,10.1
2023-05-10T02:12:41.340Z,10.1
2023-05-10T02:13:57.638Z,10.1
2023-05-10T02:15:13.926Z,10.1
2023-05-10T02:16:30.221Z,10.1
2023-05-10T02:17:46.522Z,10.1
2023-05-10T02:19:02.805Z,10.1
2023-05-10T02:20:19.110Z,10.1
2023-05-10T02:21:34.364Z,10
2023-05-10T02:22:50.613Z,10
2023-05-10T02:24:06.898Z,10
2023-05-10T02:25:23.208Z,10
2023-05-10T02:26:39.499Z,10
2023-05-10T02:27:55.782Z,10
2023-05-10T02:29:11.113Z,10.1
2023-05-10T02:30:27.400Z,10.1
2023-05-10T02:31:43.700Z,10
2023-05-10T02:32:59.990Z,10.1
2023-05-10T02:34:16.284Z,10.1
2023-05-10T02:35:32.580Z,10.1
2023-05-10T02:36:48.879Z,10.1
2023-05-10T02:38:05.156Z,10
2023-05-10T02:39:21.449Z,10
2023-05-10T02:40:37.747Z,10.1
2023-05-10T02:41:54.057Z,10
2023-05-10T02:43:10.345Z,10
2023-05-10T02:44:26.652Z,10
2023-05-10T02:45:41.953Z,10
2023-05-10T02:46:58.241Z,10
2023-05-10T02:48:14.552Z,10
2023-05-10T02:49:30.841Z,10
2023-05-10T02:50:47.118Z,10
2023-05-10T02:52:03.410Z,9.9
2023-05-10T02:53:19.679Z,10
2023-05-10T02:54:35.951Z,9.9
2023-05-10T02:55:52.248Z,9.9
2023-05-10T02:57:08.505Z,9.9
2023-05-10T02:58:24.799Z,9.9
2023-05-10T02:59:41.085Z,9.9
2023-05-10T03:00:57.395Z,9.9
2023-05-10T03:02:12.708Z,9.9
2023-05-10T03:03:28.953Z,9.9
2023-05-10T03:04:45.000Z,9.9
2023-05-10T03:06:01.484Z,9.9
2023-05-10T03:07:17.715Z,9.9
2023-05-10T03:08:33.970Z,9.9
2023-05-10T03:09:50.211Z,9.9
2023-05-10T03:11:06.449Z,9.9
2023-05-10T03:12:22.682Z,9.9
2023-05-10T03:13:38.922Z,9.9
2023-05-10T03:14:55.170Z,9.9
2023-05-10T03:16:11.413Z,9.9
2023-05-10T03:17:27.653Z,9.9
2023-05-10T03:18:42.905Z,9.8
2023-05-10T03:19:59.147Z,9.9
2023-05-10T03:21:15.388Z,9.8
2023-05-10T03:22:31.620Z,9.9
2023-05-10T03:23:47.857Z,9.8
2023-05-10T03:25:04.119Z,9.8
2023-05-10T03:26:20.351Z,9.8
2023-05-10T03:27:36.597Z,9.8
2023-05-10T03:28:52.825Z,9.8
2023-05-10T03:30:09.065Z,9.8
2023-05-10T03:31:25.324Z,9.8
2023-05-10T03:32:41.557Z,9.8
2023-05-10T03:33:57.799Z,9.8
2023-05-10T03:35:13.052Z,9.8
2023-05-10T03:36:29.295Z,9.8
2023-05-10T03:37:45.527Z,9.8
2023-05-10T03:39:01.760Z,9.8
2023-05-10T03:40:18.001Z,9.8
2023-05-10T03:41:34.243Z,9.8
2023-05-10T03:42:50.492Z,9.8
2023-05-10T03:44:06.731Z,9.8
2023-05-10T03:45:22.989Z,9.8
2023-05-10T03:46:39.218Z,9.8
2023-05-10T03:47:55.465Z,9.8
2023-05-10T03:49:11.703Z,9.8
2023-05-10T03:50:27.931Z,9.8
2023-05-10T03:51:43.191Z,9.8
2023-05-10T03:52:59.440Z,9.8
2023-05-10T03:54:15.665Z,9.8
2023-05-10T03:55:31.903Z,9.8
2023-05-10T03:56:48.151Z,9.8
2023-05-10T03:58:04.399Z,9.8
2023-05-10T03:59:20.635Z,9.8
2023-05-10T04:00:36.873Z,9.8
2023-05-10T04:01:53.119Z,9.8
2023-05-10T04:03:09.353Z,9.9
2023-05-10T04:04:25.596Z,9.8
2023-05-10T04:05:41.831Z,9.8
2023-05-10T04:06:58.073Z,9.8
2023-05-10T04:08:13.343Z,9.9
2023-05-10T04:09:29.583Z,9.9
2023-05-10T04:10:45.818Z,9.9
2023-05-10T04:12:02.062Z,9.9
2023-05-10T04:13:18.287Z,9.9
2023-05-10T04:14:34.539Z,9.9
2023-05-10T04:15:50.787Z,9.9
2023-05-10T04:17:07.023Z,9.9
2023-05-10T04:18:23.251Z,9.9
2023-05-10T04:19:39.498Z,10
2023-05-10T04:20:55.747Z,10
2023-05-10T04:22:11.977Z,10
2023-05-10T04:23:28.221Z,10
2023-05-10T04:24:43.475Z,10.1
2023-05-10T04:25:59.729Z,10.1
2023-05-10T04:27:15.949Z,10.1
2023-05-10T04:28:32.194Z,10.2
2023-05-10T04:29:48.430Z,10.2
2023-05-10T04:31:04.686Z,10.3
2023-05-10T04:32:20.914Z,10.3
2023-05-10T04:33:37.166Z,10.4
2023-05-10T04:34:53.410Z,10.4
2023-05-10T04:36:09.634Z,10.4
2023-05-10T04:37:25.880Z,10.5
2023-05-10T04:38:42.135Z,10.5
2023-05-10T04:39:58.355Z,10.5
2023-05-10T04:41:13.619Z,10.6
2023-05-10T04:42:29.881Z,10.7
2023-05-10T04:43:46.102Z,10.7
2023-05-10T04:45:02.349Z,10.7
2023-05-10T04:46:18.571Z,10.8
2023-05-10T04:47:34.837Z,10.8
2023-05-10T04:48:51.056Z,10.9
2023-05-10T04:50:07.297Z,10.9
2023-05-10T04:51:23.547Z,11
2023-05-10T04:52:39.793Z,11
2023-05-10T04:53:56.032Z,11.1
2023-05-10T04:55:12.267Z,11.1
2023-05-10T04:56:28.496Z,11.2
2023-05-10T04:57:43.760Z,11.2
2023-05-10T04:59:00.001Z,11.2
2023-05-10T05:00:16.235Z,11.3
2023-05-10T05:01:32.492Z,11.3
2023-05-10T05:02:48.730Z,11.4
2023-05-10T05:04:04.966Z,11.4
2023-05-10T05:05:21.196Z,11.5
2023-05-10T05:06:37.454Z,11.5
2023-05-10T05:07:53.692Z,11.6
2023-05-10T05:09:09.919Z,11.6
2023-05-10T05:10:26.165Z,11.7
2023-05-10T05:11:42.413Z,11.8
2023-05-10T05:12:58.660Z,11.8
2023-05-10T05:14:13.907Z,11.8
2023-05-10T05:15:30.144Z,11.9
2023-05-10T05:16:46.392Z,11.9
2023-05-10T05:18:02.630Z,12
2023-05-10T05:19:18.862Z,12
2023-05-10T05:20:35.108Z,12
2023-05-10T05:21:51.347Z,12.1
2023-05-10T05:23:07.597Z,12.2
2023-05-10T05:24:23.832Z,12.3
2023-05-10T05:25:40.065Z,12.3
2023-05-10T05:26:56.301Z,12.4
2023-05-10T05:28:12.542Z,12.5
2023-05-10T05:29:28.792Z,12.5
2023-05-10T05:30:44.053Z,12.6
2023-05-10T05:32:00.290Z,12.6
2023-05-10T05:33:16.529Z,12.7
2023-05-10T05:34:32.764Z,12.8
2023-05-10T05:35:49.019Z,12.9
2023-05-10T05:37:05.255Z,13
2023-05-10T05:38:21.499Z,13
2023-05-10T05:39:37.748Z,13.1
2023-05-10T05:40:53.964Z,13.1
2023-05-10T05:42:10.221Z,13.2
2023-05-10T05:43:26.458Z,13.3
2023-05-10T05:44:42.687Z,13.3
2023-05-10T05:45:58.929Z,13.4
2023-05-10T05:47:14.187Z,13.5
2023-05-10T05:48:30.430Z,13.6
2023-05-10T05:49:46.669Z,13.6
2023-05-10T05:51:02.915Z,13.7
2023-05-10T05:52:19.142Z,13.8
2023-05-10T05:53:35.382Z,13.8
2023-05-10T05:54:51.624Z,13.9
2023-05-10T05:56:07.865Z,14
2023-05-10T05:57:24.107Z,14
2023-05-10T05:58:40.357Z,14.1
2023-05-10T05:59:56.591Z,14.1
2023-05-10T06:01:12.839Z,14.2
2023-05-10T06:02:29.083Z,14.2
2023-05-10T06:03:44.345Z,14.3
2023-05-10T06:05:00.575Z,14.4
2023-05-10T06:06:16.800Z,14.4
2023-05-10T06:07:33.047Z,14.5
2023-05-10T06:08:49.300Z,14.5
2023-05-10T06:10:05.538Z,14.6
2023-05-10T06:11:21.773Z,14.6
2023-05-10T06:12:38.009Z,14.7
2023-05-10T06:13:54.252Z,14.8
2023-05-10T06:15:10.497Z,14.9
2023-05-10T06:16:26.741Z,14.9
2023-05-10T06:17:42.979Z,14.9
2023-05-10T06:18:59.211Z,15
2023-05-10T06:20:14.461Z,15
2023-05-10T06:21:30.718Z,15.1
2023-05-10T06:22:46.953Z,15.1
2023-05-10T06:24:03.193Z,15.2
2023-05-10T06:25:19.423Z,15.2
2023-05-10T06:26:35.663Z,15.2
2023-05-10T06:27:51.924Z,15.3
2023-05-10T06:29:08.166Z,15.3
2023-05-10T06:30:24.401Z,15.3
2023-05-10T06:31:40.631Z,15.4
2023-05-10T06:32:56.863Z,15.4
2023-05-10T06:34:13.114Z,15.5
2023-05-10T06:35:29.350Z,15.5
2023-05-10T06:36:44.601Z,15.5
2023-05-10T06:38:00.860Z,15.5
2023-05-10T06:39:17.099Z,15.5
2023-05-10T06:40:33.334Z,15.5
2023-05-10T06:41:49.570Z,15.4
2023-05-10T06:43:05.806Z,15.4
2023-05-10T06:44:21.073Z,15.4
2023-05-10T06:45:37.336Z,15.4
2023-05-10T06:46:53.556Z,15.4
2023-05-10T06:48:09.786Z,15.4
2023-05-10T06:49:26.027Z,15.4
2023-05-10T06:50:42.271Z,15.4
2023-05-10T06:51:58.521Z,15.4
2023-05-10T06:53:14.750Z,15.4
2023-05-10T06:54:30.996Z,15.3
2023-05-10T06:55:47.234Z,15.3
2023-05-10T06:57:03.480Z,15.3
2023-05-10T06:58:19.722Z,15.3
2023-05-10T06:59:35.947Z,15.3
2023-05-10T07:00:51.208Z,15.4
2023-05-10T07:02:07.463Z,15.4
2023-05-10T07:03:23.704Z,15.4
2023-05-10T07:04:39.942Z,15.5
2023-05-10T07:05:56.180Z,15.4
2023-05-10T07:07:12.416Z,15.5
2023-05-10T07:08:28.663Z,15.5
2023-05-10T07:09:44.902Z,15.5
2023-05-10T07:11:01.126Z,15.6
2023-05-10T07:12:17.378Z,15.6
2023-05-10T07:13:33.611Z,15.7
2023-05-10T07:14:49.858Z,15.7
2023-05-10T07:16:06.100Z,15.7
2023-05-10T07:17:21.354Z,15.7
2023-05-10T07:18:37.000Z,15.8
2023-05-10T07:19:53.831Z,15.9
2023-05-10T07:21:10.074Z,16
2023-05-10T07:22:26.313Z,16.1
2023-05-10T07:23:42.548Z,16.1
2023-05-10T07:24:58.794Z,16.2
2023-05-10T07:26:15.051Z,16.2
2023-05-10T07:27:31.277Z,16.3
2023-05-10T07:28:47.507Z,16.4
2023-05-10T07:30:03.752Z,16.5
2023-05-10T07:31:19.993Z,16.5
2023-05-10T07:32:36.241Z,16.5
2023-05-10T07:33:51.485Z,16.5
2023-05-10T07:35:07.723Z,16.6
2023-05-10T07:36:23.963Z,16.6
2023-05-10T07:37:40.205Z,16.6
2023-05-10T07:38:56.452Z,16.7
2023-05-10T07:40:12.691Z,16.8
2023-05-10T07:41:28.945Z,16.8
2023-05-10T07:42:45.175Z,16.9
2023-05-10T07:44:01.421Z,17
2023-05-10T07:45:17.653Z,17.1
2023-05-10T07:46:33.900Z,17.2
2023-05-10T07:47:50.142Z,17.2
2023-05-10T07:49:06.387Z,17.3
2023-05-10T07:50:21.632Z,17.4
2023-05-10T07:51:37.872Z,17.4
2023-05-10T07:52:54.115Z,17.5
2023-05-10T07:54:10.346Z,17.6
2023-05-10T07:55:26.605Z,17.7
2023-05-10T07:56:42.833Z,17.7
2023-05-10T07:57:59.075Z,17.8
2023-05-10T07:59:15.309Z,17.8
2023-05-10T08:00:31.558Z,17.8
2023-05-10T08:01:47.800Z,17.8
2023-05-10T08:04:20.287Z,17.8
2023-05-10T08:05:36.521Z,17.9
2023-05-10T08:06:51.776Z,17.9
2023-05-10T08:08:08.025Z,18
2023-05-10T08:09:24.260Z,18
2023-05-10T08:10:40.493Z,18.1
2023-05-10T08:11:56.736Z,18.1
2023-05-10T08:13:12.970Z,18.1
2023-05-10T08:14:29.211Z,18.1
2023-05-10T08:15:45.450Z,18.1
2023-05-10T08:17:01.691Z,18.2
2023-05-10T08:18:17.930Z,18.2
2023-05-10T08:19:34.178Z,18.3
2023-05-10T08:20:50.409Z,18.3
2023-05-10T08:22:06.659Z,18.3
2023-05-10T08:23:21.904Z,18.3
2023-05-10T08:24:38.162Z,18.2
2023-05-10T08:25:54.384Z,18.1
2023-05-10T08:27:10.628Z,18
2023-05-10T08:28:26.867Z,17.9
2023-05-10T08:29:43.107Z,17.9
2023-05-10T08:30:59.363Z,17.8
2023-05-10T08:32:15.600Z,17.8
2023-05-10T08:33:31.838Z,17.7
2023-05-10T08:34:48.080Z,17.7
2023-05-10T08:36:04.323Z,17.7
2023-05-10T08:37:20.546Z,17.7
2023-05-10T08:38:36.790Z,17.6
2023-05-10T08:39:52.055Z,17.5
2023-05-10T08:41:08.290Z,17.4
2023-05-10T08:42:24.543Z,17.3
2023-05-10T08:43:40.766Z,17.3
2023-05-10T08:44:57.007Z,17.3
2023-05-10T08:46:13.258Z,17.2
2023-05-10T08:47:29.491Z,17
2023-05-10T08:48:45.736Z,17
2023-05-10T08:50:01.971Z,16.9
2023-05-10T08:51:18.216Z,16.9
2023-05-10T08:52:34.451Z,16.9
2023-05-10T08:53:50.701Z,17
2023-05-10T08:55:06.933Z,16.9
2023-05-10T08:56:22.183Z,16.8
2023-05-10T08:57:38.438Z,16.8
2023-05-10T08:58:54.675Z,16.8
2023-05-10T09:00:10.916Z,16.7
2023-05-10T09:01:27.149Z,16.6
2023-05-10T09:02:43.386Z,16.5
2023-05-10T09:03:59.623Z,16.5
2023-05-10T09:05:15.861Z,16.4
2023-05-10T09:06:32.105Z,16.3
2023-05-10T09:07:48.340Z,16.3
2023-05-10T09:09:04.584Z,16.2
2023-05-10T09:10:20.829Z,16.2
2023-05-10T09:11:37.071Z,16.1
2023-05-10T09:12:52.333Z,16.1
2023-05-10T09:14:08.558Z,15.9
2023-05-10T09:15:24.817Z,15.9
2023-05-10T09:16:41.045Z,15.9
2023-05-10T09:17:57.279Z,15.8
2023-05-10T09:19:13.528Z,15.8
2023-05-10T09:20:29.769Z,15.8
2023-05-10T09:21:45.999Z,15.7
2023-05-10T09:23:02.259Z,15.7
2023-05-10T09:24:18.487Z,15.6
2023-05-10T09:25:34.721Z,15.6
2023-05-10T09:26:50.970Z,15.5
2023-05-10T09:28:07.202Z,15.5
2023-05-10T09:29:22.458Z,15.5
2023-05-10T09:30:38.705Z,15.5
2023-05-10T09:31:54.938Z,15.5
2023-05-10T09:33:11.198Z,15.5
2023-05-10T09:34:27.437Z,15.4
2023-05-10T09:35:43.669Z,15.4
2023-05-10T09:36:59.908Z,15.4
2023-05-10T09:38:16.160Z,15.4
2023-05-10T09:39:32.389Z,15.4
2023-05-10T09:40:48.624Z,15.4
2023-05-10T09:42:04.878Z,15.4
2023-05-10T09:43:21.109Z,15.4
2023-05-10T09:44:37.348Z,15.4
2023-05-10T09:45:52.609Z,15.4
2023-05-10T09:47:08.856Z,15.5
2023-05-10T09:48:25.079Z,15.5
2023-05-10T09:49:41.328Z,15.4
2023-05-10T09:50:57.575Z,15.4
2023-05-10T09:52:13.800Z,15.4
2023-05-10T09:53:30.043Z,15.3
2023-05-10T09:54:46.293Z,15.3
2023-05-10T09:56:02.539Z,15.4
2023-05-10T09:57:18.781Z,15.3
2023-05-10T09:58:35.006Z,15.3
2023-05-10T09:59:51.250Z,15.3
2023-05-10T10:01:07.487Z,15.2
2023-05-10T10:02:22.755Z,15.2
2023-05-10T10:03:38.999Z,15.1
2023-05-10T10:04:55.233Z,15.1
2023-05-10T10:06:11.476Z,14.9
2023-05-10T10:07:27.707Z,14.9
2023-05-10T10:08:43.939Z,14.8
2023-05-10T10:10:00.187Z,14.9
2023-05-10T10:11:16.430Z,14.9
2023-05-10T10:12:32.663Z,14.9
2023-05-10T10:13:48.913Z,14.9
2023-05-10T10:15:05.146Z,14.9
2023-05-10T10:16:21.387Z,15
2023-05-10T10:17:37.630Z,15
2023-05-10T10:18:52.888Z,15
2023-05-10T10:20:09.129Z,15
2023-05-10T10:21:25.363Z,14.9
2023-05-10T10:22:41.610Z,14.9
2023-05-10T10:23:57.850Z,14.9
2023-05-10T10:25:14.099Z,14.9
2023-05-10T10:26:30.342Z,14.9
2023-05-10T10:27:46.572Z,14.9
2023-05-10T10:29:02.813Z,15
2023-05-10T10:30:19.052Z,15
2023-05-10T10:31:35.295Z,15
2023-05-10T10:32:51.530Z,15.1
2023-05-10T10:34:07.763Z,15.1
2023-05-10T10:35:23.026Z,15.2
2023-05-10T10:36:39.265Z,15.2
2023-05-10T10:37:55.514Z,15.2
2023-05-10T10:39:11.753Z,15.1
2023-05-10T10:40:27.980Z,15.1
2023-05-10T10:41:44.240Z,15.1
2023-05-10T10:43:00.460Z,15
2023-05-10T10:44:16.702Z,14.9
2023-05-10T10:45:32.945Z,14.8
2023-05-10T10:46:49.198Z,14.8
2023-05-10T10:48:05.426Z,14.8
2023-05-10T10:49:21.676Z,14.8
2023-05-10T10:50:37.903Z,14.8
2023-05-10T10:51:53.172Z,14.8
2023-05-10T10:53:09.400Z,14.8
2023-05-10T10:54:25.639Z,14.9
2023-05-10T10:55:41.882Z,14.9
2023-05-10T10:56:58.131Z,14.9
2023-05-10T10:58:14.376Z,14.9
2023-05-10T10:59:29.628Z,14.9
2023-05-10T11:00:45.880Z,14.8
2023-05-10T11:02:02.108Z,14.8
2023-05-10T11:03:18.357Z,14.8
2023-05-10T11:04:34.587Z,14.8
2023-05-10T11:05:50.832Z,14.8
2023-05-10T11:07:07.069Z,14.8
2023-05-10T11:08:23.306Z,14.8
2023-05-10T11:09:39.557Z,14.8
2023-05-10T11:10:55.794Z,14.8
2023-05-10T11:12:12.032Z,14.8
2023-05-10T11:13:28.283Z,14.7
2023-05-10T11:14:44.505Z,14.8
2023-05-10T11:15:59.766Z,14.8
2023-05-10T11:17:16.007Z,14.8
2023-05-10T11:18:32.244Z,14.8
2023-05-10T11:19:48.493Z,14.8
2023-05-10T11:21:04.737Z,14.9
2023-05-10T11:22:20.962Z,14.9
2023-05-10T11:23:37.210Z,14.9
2023-05-10T11:24:53.445Z,14.9
2023-05-10T11:26:09.698Z,14.8
2023-05-10T11:27:25.940Z,14.9
2023-05-10T11:28:42.165Z,14.9
2023-05-10T11:29:58.404Z,14.9
2023-05-10T11:31:14.652Z,14.9
2023-05-10T11:32:29.908Z,14.9
2023-05-10T11:33:46.150Z,15
2023-05-10T11:35:02.385Z,15
2023-05-10T11:36:18.625Z,15
2023-05-10T11:37:34.880Z,15
2023-05-10T11:38:51.102Z,15.1
2023-05-10T11:40:07.342Z,15.1
2023-05-10T11:41:23.597Z,15.1
2023-05-10T11:42:39.823Z,15
2023-05-10T11:43:56.065Z,15
2023-05-10T11:45:12.316Z,15
2023-05-10T11:46:28.548Z,15.1
2023-05-10T11:47:44.784Z,15
2023-05-10T11:49:00.050Z,15.1
2023-05-10T11:50:16.302Z,15.1
2023-05-10T11:51:32.538Z,15.1
2023-05-10T11:52:48.770Z,15.2
2023-05-10T11:54:05.015Z,15.1
2023-05-10T11:55:21.261Z,15.1
2023-05-10T11:56:37.484Z,15.1
2023-05-10T11:57:53.730Z,15.1
2023-05-10T11:59:09.979Z,15.1
2023-05-10T12:00:26.211Z,15.1
2023-05-10T12:01:42.457Z,15.1
2023-05-10T12:02:58.700Z,15.1
2023-05-10T12:04:14.928Z,15.1
2023-05-10T12:05:30.183Z,15.1
2023-05-10T12:06:46.436Z,15.1
2023-05-10T12:08:02.677Z,15.1
2023-05-10T12:09:18.911Z,15.1
2023-05-10T12:10:35.152Z,15.1
2023-05-10T12:11:51.398Z,15.1
2023-05-10T12:13:07.638Z,15.1
2023-05-10T12:14:23.862Z,15
2023-05-10T12:15:40.112Z,15
2023-05-10T12:16:56.351Z,15
2023-05-10T12:18:12.586Z,15
2023-05-10T12:19:28.828Z,14.9
2023-05-10T12:20:45.074Z,14.9
2023-05-10T12:22:00.328Z,14.9
2023-05-10T12:23:16.572Z,14.9
2023-05-10T12:24:32.817Z,14.9
2023-05-10T12:25:49.053Z,14.9
2023-05-10T12:27:05.294Z,14.9
2023-05-10T12:28:21.527Z,14.9
2023-05-10T12:29:37.770Z,14.9
2023-05-10T12:30:54.009Z,14.9
2023-05-10T12:32:10.243Z,14.8
2023-05-10T12:33:26.486Z,14.8
2023-05-10T12:34:42.725Z,14.8
2023-05-10T12:35:58.969Z,14.8
2023-05-10T12:37:15.216Z,14.8
2023-05-10T12:38:30.465Z,14.8
2023-05-10T12:39:46.713Z,14.7
2023-05-10T12:41:02.941Z,14.7
2023-05-10T12:42:19.198Z,14.7
2023-05-10T12:43:35.441Z,14.8
2023-05-10T12:44:51.677Z,14.8
2023-05-10T12:46:07.911Z,14.8
2023-05-10T12:47:24.147Z,14.8
2023-05-10T12:48:40.386Z,14.8
2023-05-10T12:49:56.631Z,14.8
2023-05-10T12:51:12.868Z,14.8
2023-05-10T12:52:29.109Z,14.8
2023-05-10T12:53:45.348Z,14.8
2023-05-10T12:55:00.613Z,14.8
2023-05-10T12:56:16.858Z,14.8
2023-05-10T12:57:33.099Z,14.8
2023-05-10T12:58:49.330Z,14.9
2023-05-10T13:00:05.577Z,14.9
2023-05-10T13:01:21.821Z,14.9
2023-05-10T13:02:38.051Z,14.9
2023-05-10T13:03:54.283Z,14.9
2023-05-10T13:05:10.530Z,15
2023-05-10T13:06:26.769Z,15
2023-05-10T13:07:43.009Z,15
2023-05-10T13:08:59.246Z,15.1
2023-05-10T13:10:15.490Z,15.1
2023-05-10T13:11:30.754Z,15.1
2023-05-10T13:12:46.983Z,15.1
2023-05-10T13:14:03.233Z,15.2
2023-05-10T13:15:19.465Z,15.2
2023-05-10T13:16:35.714Z,15.2
2023-05-10T13:17:51.950Z,15.2
2023-05-10T13:19:08.191Z,15.2
2023-05-10T13:20:24.434Z,15.2
2023-05-10T13:21:40.684Z,15.3
2023-05-10T13:22:56.920Z,15.3
2023-05-10T13:24:13.150Z,15.3
2023-05-10T13:25:29.397Z,15.3
2023-05-10T13:26:45.646Z,15.3
2023-05-10T13:28:00.890Z,15.4
2023-05-10T13:29:17.141Z,15.4
2023-05-10T13:30:33.363Z,15.4
2023-05-10T13:31:49.609Z,15.4
2023-05-10T13:33:05.856Z,15.4
2023-05-10T13:34:22.094Z,15.4
2023-05-10T13:35:38.327Z,15.5
2023-05-10T13:36:54.580Z,15.5
2023-05-10T13:38:10.820Z,15.5
2023-05-10T13:39:27.058Z,15.5
2023-05-10T13:40:43.307Z,15.6
2023-05-10T13:41:59.540Z,15.6
2023-05-10T13:43:15.773Z,15.6
2023-05-10T13:44:31.034Z,15.6
2023-05-10T13:45:47.265Z,15.7
2023-05-10T13:47:03.509Z,15.7
2023-05-10T13:48:19.744Z,15.8
2023-05-10T13:49:35.990Z,15.7
2023-05-10T13:50:52.227Z,15.8
2023-05-10T13:52:08.475Z,15.8
2023-05-10T13:53:24.709Z,15.9
2023-05-10T13:54:40.953Z,15.9
2023-05-10T13:55:57.204Z,15.9
2023-05-10T13:57:13.442Z,16
2023-05-10T13:58:29.687Z,16
2023-05-10T13:59:45.917Z,16
2023-05-10T14:01:01.178Z,16.1
2023-05-10T14:02:17.420Z,16.1
2023-05-10T14:03:33.651Z,16.2
2023-05-10T14:04:49.891Z,16.2
2023-05-10T14:06:06.126Z,16.2
2023-05-10T14:07:22.380Z,16.2
2023-05-10T14:08:38.611Z,16.3
2023-05-10T14:09:54.866Z,16.3
2023-05-10T14:11:11.095Z,16.3
2023-05-10T14:12:27.339Z,16.4
2023-05-10T14:13:43.581Z,16.4
2023-05-10T14:14:59.823Z,16.4
2023-05-10T14:16:16.063Z,16.4
2023-05-10T14:17:31.320Z,16.5
2023-05-10T14:18:47.543Z,16.5
2023-05-10T14:20:03.801Z,16.5
2023-05-10T14:21:20.040Z,16.5
2023-05-10T14:22:36.283Z,16.5
2023-05-10T14:23:52.508Z,16.6
2023-05-10T14:25:08.764Z,16.6
2023-05-10T14:26:24.999Z,16.6
2023-05-10T14:27:41.239Z,16.6
2023-05-10T14:28:57.478Z,16.6
2023-05-10T14:30:13.718Z,16.6
2023-05-10T14:31:29.954Z,16.5
2023-05-10T14:32:46.194Z,16.6
2023-05-10T14:34:01.452Z,16.6
2023-05-10T14:35:17.694Z,16.6
2023-05-10T14:36:33.933Z,16.6
2023-05-10T14:37:50.180Z,16.6
2023-05-10T14:39:06.428Z,16.6
2023-05-10T14:40:22.661Z,16.6
2023-05-10T14:41:38.902Z,16.5
2023-05-10T14:42:55.135Z,16.4
2023-05-10T14:44:11.381Z,16.4
2023-05-10T14:45:27.613Z,16.4
2023-05-10T14:46:43.854Z,16.4
2023-05-10T14:48:00.094Z,16.4
2023-05-10T14:49:16.345Z,16.5
2023-05-10T14:50:31.603Z,16.5
2023-05-10T14:51:47.825Z,16.6
2023-05-10T14:53:04.075Z,16.6
2023-05-10T14:54:20.325Z,16.6
2023-05-10T14:55:36.564Z,16.6
2023-05-10T14:56:52.797Z,16.5
2023-05-10T14:58:09.046Z,16.5
2023-05-10T14:59:25.267Z,16.6
2023-05-10T15:00:41.516Z,16.6
2023-05-10T15:01:57.762Z,16.6
2023-05-10T15:03:13.998Z,16.6
2023-05-10T15:04:30.241Z,16.6
2023-05-10T15:05:46.478Z,16.6
2023-05-10T15:07:01.737Z,16.6
2023-05-10T15:08:17.967Z,16.6
2023-05-10T15:09:34.204Z,16.6
2023-05-10T15:10:50.450Z,16.6
2023-05-10T15:12:06.702Z,16.6
2023-05-10T15:13:22.935Z,16.6
2023-05-10T15:14:38.196Z,16.6
2023-05-10T15:15:54.442Z,16.6
2023-05-10T15:17:10.673Z,16.6
2023-05-10T15:18:26.919Z,16.5
2023-05-10T15:19:43.151Z,16.5
2023-05-10T15:20:59.406Z,16.5
2023-05-10T15:22:15.653Z,16.4
2023-05-10T15:23:31.879Z,16.4
2023-05-10T15:24:48.125Z,16.4
2023-05-10T15:26:04.357Z,16.4
2023-05-10T15:27:20.607Z,16.4
2023-05-10T15:28:36.846Z,16.3
2023-05-10T15:29:53.090Z,16.3
2023-05-10T15:31:08.336Z,16.3
2023-05-10T15:32:24.584Z,16.3
2023-05-10T15:33:40.829Z,16.3
2023-05-10T15:34:57.067Z,16.4
2023-05-10T15:36:13.290Z,16.4
2023-05-10T15:37:29.541Z,16.4
2023-05-10T15:38:45.773Z,16.4
2023-05-10T15:40:02.023Z,16.4
2023-05-10T15:41:18.264Z,16.4
2023-05-10T15:42:34.492Z,16.4
2023-05-10T15:43:50.752Z,16.3
2023-05-10T15:45:06.988Z,16.3
2023-05-10T15:46:23.223Z,16.3
2023-05-10T15:47:38.490Z,16.4
2023-05-10T15:48:54.710Z,16.4
2023-05-10T15:50:10.965Z,16.4
2023-05-10T15:51:27.214Z,16.4
2023-05-10T15:52:43.439Z,16.4
2023-05-10T15:53:59.681Z,16.4
2023-05-10T15:55:15.924Z,16.4
2023-05-10T15:56:32.161Z,16.3
2023-05-10T15:57:48.395Z,16.4
2023-05-10T15:59:04.645Z,16.3
2023-05-10T16:00:20.876Z,16.4
2023-05-10T16:01:37.122Z,16.4
2023-05-10T16:02:53.363Z,16.3
2023-05-10T16:04:08.614Z,16.3
2023-05-10T16:05:24.854Z,16.3
2023-05-10T16:06:41.097Z,16.2
2023-05-10T16:07:57.350Z,16.1
2023-05-10T16:09:13.589Z,16.1
2023-05-10T16:10:29.816Z,16.1
2023-05-10T16:11:46.063Z,16.1
2023-05-10T16:13:02.310Z,16
2023-05-10T16:14:18.543Z,16
2023-05-10T16:15:34.781Z,16
2023-05-10T16:16:51.016Z,16
2023-05-10T16:18:07.270Z,15.9
2023-05-10T16:19:23.495Z,15.9
2023-05-10T16:20:38.751Z,15.9
2023-05-10T16:21:55.000Z,15.9
2023-05-10T16:23:11.236Z,15.9
2023-05-10T16:24:27.484Z,15.9
2023-05-10T16:25:43.721Z,15.9
2023-05-10T16:26:59.966Z,15.9
2023-05-10T16:28:16.204Z,15.8
2023-05-10T16:29:32.444Z,15.9
2023-05-10T16:30:48.000Z,15.8
2023-05-10T16:32:04.912Z,15.8
2023-05-10T16:33:21.155Z,15.8
2023-05-10T16:34:37.394Z,15.9
2023-05-10T16:35:53.640Z,15.8
2023-05-10T16:37:08.893Z,15.8
2023-05-10T16:38:25.137Z,15.7
2023-05-10T16:39:41.381Z,15.7
2023-05-10T16:40:57.625Z,15.6
2023-05-10T16:42:13.857Z,15.6
2023-05-10T16:43:30.110Z,15.6
2023-05-10T16:44:46.350Z,15.6
2023-05-10T16:46:02.579Z,15.6
2023-05-10T16:47:18.828Z,15.6
2023-05-10T16:48:35.067Z,15.6
2023-05-10T16:49:51.300Z,15.6
2023-05-10T16:51:07.550Z,15.6
2023-05-10T16:52:23.793Z,15.6
2023-05-10T16:53:39.048Z,15.6
2023-05-10T16:54:55.286Z,15.6
2023-05-10T16:56:11.531Z,15.6
2023-05-10T16:57:27.760Z,15.7
2023-05-10T16:58:44.001Z,15.7
2023-05-10T17:00:00.233Z,15.7
2023-05-10T17:01:16.493Z,15.8
2023-05-10T17:02:32.721Z,15.8
2023-05-10T17:03:48.965Z,15.7